createdAt,value
2023-05-03T00:00:10.267Z,1.30
2023-05-03T00:02:39.989Z,1.20
2023-05-03T00:05:12.526Z,1.27
2023-05-03T00:07:41.754Z,1.42
2023-05-03T00:10:10.288Z,1.10
2023-05-03T00:12:40.890Z,1.40
2023-05-03T00:15:08.590Z,1.27
2023-05-03T00:17:35.906Z,0.90
2023-05-03T00:20:07.109Z,1.30
2023-05-03T00:22:34.244Z,1.20
2023-05-03T00:25:01.118Z,1.23
2023-05-03T00:27:28.858Z,1.20
2023-05-03T00:29:55.904Z,1.35
2023-05-03T00:32:23.151Z,1.70
2023-05-03T00:34:54.314Z,1.48
2023-05-03T00:37:21.307Z,1.23
2023-05-03T00:39:48.278Z,1.73
2023-05-03T00:42:14.998Z,1.50
2023-05-03T00:44:41.845Z,1.33
2023-05-03T00:47:09.297Z,1.20
2023-05-03T00:49:36.708Z,1.80
2023-05-03T00:52:03.462Z,2.00
2023-05-03T00:54:30.502Z,1.73
2023-05-03T00:56:57.521Z,1.70
2023-05-03T00:59:24.602Z,2.17
2023-05-03T01:01:52.983Z,1.77
2023-05-03T01:04:21.608Z,1.88
2023-05-03T01:07:26.128Z,2.45
2023-05-03T01:10:13.578Z,2.20
2023-05-03T01:13:28.336Z,2.42
2023-05-03T01:16:24.947Z,2.63
2023-05-03T01:18:54.950Z,2.42
2023-05-03T01:21:22.703Z,2.40
2023-05-03T01:23:59.435Z,2.10
2023-05-03T01:26:27.964Z,2.42
2023-05-03T01:28:55.826Z,1.98
2023-05-03T01:31:47.310Z,1.58
2023-05-03T01:34:17.133Z,1.83
2023-05-03T01:36:45.179Z,2.10
2023-05-03T01:39:42.298Z,1.90
2023-05-03T01:42:09.006Z,2.10
2023-05-03T01:44:37.410Z,1.65
2023-05-03T01:47:04.090Z,2.17
2023-05-03T01:49:32.055Z,1.95
2023-05-03T01:51:58.714Z,1.92
2023-05-03T01:54:25.426Z,2.05
2023-05-03T01:56:52.099Z,2.05
2023-05-03T01:59:18.778Z,2.00
2023-05-03T02:01:45.522Z,1.60
2023-05-03T02:04:12.249Z,2.20
2023-05-03T02:06:39.053Z,2.20
2023-05-03T02:09:05.782Z,2.03
2023-05-03T02:11:32.554Z,1.90
2023-05-03T02:13:59.255Z,1.90
2023-05-03T02:16:26.337Z,1.83
2023-05-03T02:18:54.337Z,1.88
2023-05-03T02:21:21.055Z,1.88
2023-05-03T02:23:47.777Z,2.20
2023-05-03T02:26:14.442Z,1.88
2023-05-03T02:28:41.192Z,2.10
2023-05-03T02:31:07.935Z,2.20
2023-05-03T02:33:35.116Z,2.20
2023-05-03T02:36:01.802Z,2.40
2023-05-03T02:38:28.478Z,2.03
2023-05-03T02:40:55.201Z,2.80
2023-05-03T02:43:22.363Z,2.50
2023-05-03T02:45:49.140Z,2.92
2023-05-03T02:48:16.572Z,2.33
2023-05-03T02:50:43.811Z,3.20
2023-05-03T02:53:10.538Z,2.92
2023-05-03T02:55:37.375Z,3.10
2023-05-03T02:58:04.133Z,2.90
2023-05-03T03:00:30.851Z,2.22
2023-05-03T03:02:57.810Z,2.22
2023-05-03T03:05:24.688Z,1.98
2023-05-03T03:07:51.672Z,2.25
2023-05-03T03:10:18.572Z,2.17
2023-05-03T03:12:45.956Z,2.20
2023-05-03T03:15:22.071Z,2.10
2023-05-03T03:17:49.004Z,2.15
2023-05-03T03:20:15.913Z,1.90
2023-05-03T03:22:47.097Z,1.92
2023-05-03T03:25:13.845Z,2.55
2023-05-03T03:27:40.792Z,2.28
2023-05-03T03:30:09.228Z,2.70
2023-05-03T03:32:41.583Z,2.78
2023-05-03T03:35:14.155Z,2.35
2023-05-03T03:37:41.004Z,1.90
2023-05-03T03:40:08.686Z,2.00
2023-05-03T03:42:36.844Z,2.28
2023-05-03T03:45:04.728Z,2.00
2023-05-03T03:47:31.507Z,1.77
2023-05-03T03:50:01.720Z,1.80
2023-05-03T03:52:30.339Z,2.28
2023-05-03T03:54:57.429Z,2.53
2023-05-03T03:57:26.027Z,3.25
2023-05-03T03:59:53.013Z,2.80
2023-05-03T04:02:19.868Z,2.63
2023-05-03T04:04:46.838Z,2.20
2023-05-03T04:07:15.161Z,2.45
2023-05-03T04:09:42.417Z,2.70
2023-05-03T04:12:09.601Z,2.88
2023-05-03T04:14:36.683Z,3.00
2023-05-03T04:17:04.669Z,2.95
2023-05-03T04:19:32.177Z,2.60
2023-05-03T04:21:59.061Z,3.00
2023-05-03T04:24:25.788Z,3.10
2023-05-03T04:26:52.912Z,2.97
2023-05-03T04:29:27.109Z,5.38
2023-05-03T04:31:54.180Z,4.10
2023-05-03T04:34:21.966Z,3.33
2023-05-03T04:36:51.758Z,2.78
2023-05-03T04:39:18.440Z,2.72
2023-05-03T04:41:47.519Z,2.20
2023-05-03T04:44:14.505Z,1.90
2023-05-03T04:46:43.430Z,1.98
2023-05-03T04:49:10.524Z,2.08
2023-05-03T04:51:37.237Z,2.22
2023-05-03T04:54:03.999Z,3.03
2023-05-03T04:56:31.561Z,2.63
2023-05-03T04:59:08.519Z,2.78
2023-05-03T05:01:36.152Z,3.03
2023-05-03T05:04:04.035Z,3.92
2023-05-03T05:06:39.481Z,4.32
2023-05-03T05:09:07.501Z,3.60
2023-05-03T05:11:34.630Z,2.92
2023-05-03T05:14:01.472Z,4.45
2023-05-03T05:16:28.250Z,4.22
2023-05-03T05:18:55.809Z,4.45
2023-05-03T05:21:25.610Z,4.03
2023-05-03T05:23:52.568Z,3.67
2023-05-03T05:26:19.331Z,2.80
2023-05-03T05:28:46.206Z,2.55
2023-05-03T05:31:13.435Z,3.55
2023-05-03T05:33:40.593Z,3.28
2023-05-03T05:36:07.906Z,3.90
2023-05-03T05:38:34.937Z,3.60
2023-05-03T05:41:04.527Z,2.65
2023-05-03T05:43:31.972Z,2.22
2023-05-03T05:45:59.501Z,3.22
2023-05-03T05:48:27.123Z,4.15
2023-05-03T05:50:54.002Z,3.35
2023-05-03T05:53:20.716Z,3.80
2023-05-03T05:55:54.810Z,4.65
2023-05-03T05:58:21.895Z,5.55
2023-05-03T06:00:52.860Z,4.97
2023-05-03T06:03:19.710Z,5.43
2023-05-03T06:05:49.328Z,5.53
2023-05-03T06:08:16.162Z,8.00
2023-05-03T06:10:42.968Z,6.40
2023-05-03T06:13:09.830Z,6.78
2023-05-03T06:15:37.017Z,7.28
2023-05-03T06:18:04.601Z,5.55
2023-05-03T06:20:31.488Z,6.00
2023-05-03T06:22:59.194Z,5.07
2023-05-03T06:25:26.696Z,4.43
2023-05-03T06:27:53.504Z,4.20
2023-05-03T06:30:25.656Z,3.53
2023-05-03T06:32:52.516Z,3.60
2023-05-03T06:35:21.735Z,3.47
2023-05-03T06:37:49.481Z,3.28
2023-05-03T06:40:16.377Z,2.60
2023-05-03T06:42:43.072Z,2.80
2023-05-03T06:45:13.716Z,2.78
2023-05-03T06:47:42.778Z,3.50
2023-05-03T06:50:10.545Z,3.30
2023-05-03T06:52:38.032Z,2.80
2023-05-03T06:55:05.217Z,2.17
2023-05-03T06:57:32.089Z,2.47
2023-05-03T06:59:59.172Z,2.35
2023-05-03T07:02:26.837Z,3.15
2023-05-03T07:04:53.888Z,3.00
2023-05-03T07:07:20.959Z,3.05
2023-05-03T07:09:48.687Z,3.40
2023-05-03T07:12:16.423Z,2.90
2023-05-03T07:14:43.363Z,3.00
2023-05-03T07:17:10.597Z,3.10
2023-05-03T07:19:38.572Z,2.90
2023-05-03T07:22:05.415Z,3.00
2023-05-03T07:24:32.134Z,3.30
2023-05-03T07:26:59.158Z,3.28
2023-05-03T07:29:27.191Z,3.42
2023-05-03T07:31:54.058Z,3.53
2023-05-03T07:34:21.220Z,3.33
2023-05-03T07:36:48.030Z,3.70
2023-05-03T07:39:14.699Z,4.20
2023-05-03T07:41:41.499Z,3.50
2023-05-03T07:44:08.256Z,3.75
2023-05-03T07:46:35.561Z,3.95
2023-05-03T07:49:04.206Z,3.60
2023-05-03T07:51:35.375Z,3.67
2023-05-03T07:54:02.174Z,3.45
2023-05-03T07:56:28.922Z,4.00
2023-05-03T07:59:07.559Z,3.85
2023-05-03T08:01:36.640Z,4.18
2023-05-03T08:04:04.583Z,4.13
2023-05-03T08:06:31.893Z,4.15
2023-05-03T08:08:58.763Z,3.92
2023-05-03T08:11:28.729Z,4.03
2023-05-03T08:13:55.567Z,4.50
2023-05-03T08:16:22.336Z,4.30
2023-05-03T08:18:49.035Z,4.10
2023-05-03T08:21:17.460Z,4.40
2023-05-03T08:23:44.949Z,4.38
2023-05-03T08:26:13.975Z,4.47
2023-05-03T08:28:40.867Z,4.63
2023-05-03T08:31:07.798Z,4.50
2023-05-03T08:33:34.608Z,4.63
2023-05-03T08:36:01.676Z,5.10
2023-05-03T08:38:28.931Z,3.90
2023-05-03T08:40:59.425Z,4.18
2023-05-03T08:43:28.704Z,4.15
2023-05-03T08:45:55.706Z,4.32
2023-05-03T08:48:25.984Z,4.43
2023-05-03T08:50:54.126Z,4.30
2023-05-03T08:53:20.848Z,4.90
2023-05-03T08:55:47.577Z,4.70
2023-05-03T08:58:14.444Z,4.32
2023-05-03T09:00:45.474Z,4.70
2023-05-03T09:03:12.728Z,4.88
2023-05-03T09:05:41.130Z,4.32
2023-05-03T09:08:16.932Z,4.20
2023-05-03T09:10:43.671Z,4.32
2023-05-03T09:13:11.983Z,4.15
2023-05-03T09:15:38.855Z,4.15
2023-05-03T09:18:08.336Z,4.50
2023-05-03T09:20:36.587Z,4.00
2023-05-03T09:23:03.325Z,4.07
2023-05-03T09:25:47.097Z,4.60
2023-05-03T09:28:15.647Z,4.30
2023-05-03T09:30:43.179Z,4.05
2023-05-03T09:33:11.502Z,4.45
2023-05-03T09:35:39.044Z,4.57
2023-05-03T09:38:06.139Z,4.50
2023-05-03T09:40:32.950Z,4.30
2023-05-03T09:43:14.407Z,4.25
2023-05-03T09:45:41.177Z,4.50
2023-05-03T09:48:08.659Z,4.20
2023-05-03T09:50:36.824Z,4.60
2023-05-03T09:53:05.287Z,4.20
2023-05-03T09:55:39.415Z,4.22
2023-05-03T09:58:07.678Z,3.67
2023-05-03T10:00:42.452Z,2.90
2023-05-03T10:03:18.190Z,3.45
2023-05-03T10:05:49.712Z,3.22
2023-05-03T10:08:30.730Z,3.47
2023-05-03T10:10:57.532Z,3.45
2023-05-03T10:13:24.904Z,3.20
2023-05-03T10:16:01.246Z,3.20
2023-05-03T10:18:31.301Z,3.97
2023-05-03T10:21:14.472Z,3.50
2023-05-03T10:24:10.261Z,3.20
2023-05-03T10:26:36.970Z,3.20
2023-05-03T10:29:07.278Z,3.47
2023-05-03T10:31:45.860Z,2.95
2023-05-03T10:34:24.464Z,3.35
2023-05-03T10:36:55.427Z,2.70
2023-05-03T10:39:22.787Z,3.00
2023-05-03T10:42:15.854Z,2.97
2023-05-03T10:44:53.429Z,3.95
2023-05-03T10:47:23.409Z,3.05
2023-05-03T10:50:12.020Z,3.10
2023-05-03T10:52:39.075Z,3.20
2023-05-03T10:55:15.728Z,3.72
2023-05-03T10:57:43.842Z,3.35
2023-05-03T11:00:14.029Z,3.17
2023-05-03T11:02:58.555Z,3.72
2023-05-03T11:05:28.034Z,3.33
2023-05-03T11:08:08.794Z,4.13
2023-05-03T11:10:35.750Z,3.90
2023-05-03T11:13:02.447Z,3.53
2023-05-03T11:15:29.300Z,3.67
2023-05-03T11:17:56.448Z,4.05
2023-05-03T11:20:24.039Z,3.30
2023-05-03T11:22:50.897Z,3.00
2023-05-03T11:25:17.756Z,3.38
2023-05-03T11:27:47.791Z,3.45
2023-05-03T11:30:14.943Z,4.10
2023-05-03T11:32:43.172Z,3.60
2023-05-03T11:35:12.104Z,3.58
2023-05-03T11:37:38.781Z,4.10
2023-05-03T11:40:08.161Z,3.47
2023-05-03T11:42:34.914Z,3.67
2023-05-03T11:45:01.921Z,3.90
2023-05-03T11:47:28.860Z,3.50
2023-05-03T11:49:56.901Z,4.38
2023-05-03T11:52:25.602Z,3.60
2023-05-03T11:54:52.892Z,3.95
2023-05-03T11:57:21.405Z,4.78
2023-05-03T11:59:49.660Z,4.47
2023-05-03T12:02:16.729Z,5.97
2023-05-03T12:04:45.901Z,3.83
2023-05-03T12:07:15.190Z,4.90
2023-05-03T12:09:45.437Z,4.13
2023-05-03T12:12:23.867Z,7.25
2023-05-03T12:15:03.824Z,6.88
2023-05-03T12:17:39.835Z,6.28
2023-05-03T12:22:57.657Z,8.32
2023-05-03T12:25:28.212Z,8.45
2023-05-03T12:28:17.647Z,8.05
2023-05-03T12:30:46.634Z,9.48
2023-05-03T12:33:16.018Z,9.13
2023-05-03T12:35:46.712Z,9.50
2023-05-03T12:38:16.497Z,9.13
2023-05-03T12:40:45.225Z,9.45
2023-05-03T12:43:12.515Z,10.05
2023-05-03T12:45:40.737Z,9.40
2023-05-03T12:48:08.872Z,9.07
2023-05-03T12:50:38.630Z,8.85
2023-05-03T12:53:09.345Z,8.32
2023-05-03T12:55:43.157Z,8.65
2023-05-03T13:00:46.540Z,7.47
2023-05-03T13:03:33.429Z,7.72
2023-05-03T13:06:12.409Z,7.20
2023-05-03T13:08:48.215Z,8.57
2023-05-03T13:11:19.193Z,8.40
2023-05-03T13:13:46.450Z,7.78
2023-05-03T13:16:14.445Z,7.45
2023-05-03T13:18:42.841Z,6.95
2023-05-03T13:21:10.967Z,7.95
2023-05-03T13:23:38.290Z,7.68
2023-05-03T13:26:05.073Z,7.80
2023-05-03T13:28:31.788Z,6.90
2023-05-03T13:30:58.483Z,7.35
2023-05-03T13:33:25.228Z,7.45
2023-05-03T13:35:51.955Z,7.85
2023-05-03T13:38:18.631Z,7.82
2023-05-03T13:40:45.539Z,7.50
2023-05-03T13:43:12.237Z,7.57
2023-05-03T13:45:38.994Z,8.43
2023-05-03T13:48:19.156Z,6.82
2023-05-03T13:50:46.231Z,7.90
2023-05-03T13:53:12.916Z,8.00
2023-05-03T13:55:39.570Z,7.15
2023-05-03T13:58:06.249Z,7.03
2023-05-03T14:00:32.972Z,6.70
2023-05-03T14:03:00.022Z,7.05
2023-05-03T14:05:27.232Z,7.20
2023-05-03T14:07:53.944Z,6.10
2023-05-03T14:10:20.748Z,6.32
2023-05-03T14:12:47.509Z,6.35
2023-05-03T14:15:14.990Z,6.35
2023-05-03T14:17:43.601Z,6.00
2023-05-03T14:20:12.043Z,5.45
2023-05-03T14:22:40.444Z,5.60
2023-05-03T14:25:07.950Z,6.22
2023-05-03T14:27:34.867Z,5.40
2023-05-03T14:30:01.882Z,5.20
2023-05-03T14:32:29.556Z,5.20
2023-05-03T14:34:56.920Z,6.00
2023-05-03T14:37:23.603Z,5.80
2023-05-03T14:39:50.380Z,5.00
2023-05-03T14:42:17.109Z,5.10
2023-05-03T14:44:44.410Z,5.55
2023-05-03T14:47:11.271Z,5.63
2023-05-03T14:49:41.378Z,4.97
2023-05-03T14:52:08.822Z,4.85
2023-05-03T14:54:37.166Z,4.53
2023-05-03T14:57:04.526Z,4.55
2023-05-03T14:59:34.751Z,4.55
2023-05-03T15:02:01.651Z,5.22
2023-05-03T15:04:29.130Z,5.50
2023-05-03T15:06:59.313Z,5.18
2023-05-03T15:09:26.004Z,5.15
2023-05-03T15:11:52.665Z,4.78
2023-05-03T15:14:19.473Z,5.50
2023-05-03T15:16:46.275Z,4.55
2023-05-03T15:19:12.975Z,4.70
2023-05-03T15:21:47.523Z,4.78
2023-05-03T15:24:14.358Z,4.78
2023-05-03T15:26:41.298Z,4.72
2023-05-03T15:29:07.977Z,4.20
2023-05-03T15:31:35.442Z,5.15
2023-05-03T15:34:02.894Z,4.55
2023-05-03T15:36:29.757Z,4.25
2023-05-03T15:38:56.437Z,4.70
2023-05-03T15:41:23.929Z,4.65
2023-05-03T15:43:50.673Z,5.15
2023-05-03T15:46:17.438Z,4.75
2023-05-03T15:48:44.145Z,4.43
2023-05-03T15:51:10.897Z,4.32
2023-05-03T15:53:37.658Z,5.57
2023-05-03T15:56:05.216Z,4.45
2023-05-03T15:58:32.150Z,4.50
2023-05-03T16:01:00.386Z,4.72
2023-05-03T16:03:28.584Z,4.45
2023-05-03T16:05:56.477Z,4.85
2023-05-03T16:08:23.207Z,4.82
2023-05-03T16:10:50.004Z,5.40
2023-05-03T16:13:16.755Z,4.10
2023-05-03T16:15:43.832Z,4.88
2023-05-03T16:18:10.613Z,4.10
2023-05-03T16:20:37.786Z,4.72
2023-05-03T16:23:04.438Z,4.28
2023-05-03T16:25:31.326Z,4.40
2023-05-03T16:27:58.128Z,4.85
2023-05-03T16:30:24.914Z,4.45
2023-05-03T16:32:53.591Z,4.88
2023-05-03T16:35:20.499Z,5.68
2023-05-03T16:37:47.228Z,4.53
2023-05-03T16:40:14.031Z,4.90
2023-05-03T16:42:42.524Z,3.65
2023-05-03T16:45:12.981Z,4.20
2023-05-03T16:47:40.180Z,4.75
2023-05-03T16:50:07.997Z,4.20
2023-05-03T16:52:39.450Z,4.43
2023-05-03T16:55:07.680Z,5.80
2023-05-03T16:57:34.378Z,4.20
2023-05-03T17:00:08.319Z,3.95
2023-05-03T17:02:36.223Z,5.03
2023-05-03T17:05:07.846Z,3.83
2023-05-03T17:07:35.584Z,5.03
2023-05-03T17:10:03.783Z,5.47
2023-05-03T17:12:31.070Z,4.60
2023-05-03T17:14:57.923Z,3.75
2023-05-03T17:17:24.663Z,3.97
2023-05-03T17:19:51.583Z,4.13
2023-05-03T17:22:18.502Z,4.15
2023-05-03T17:24:45.231Z,3.83
2023-05-03T17:27:11.912Z,3.47
2023-05-03T17:29:39.254Z,4.07
2023-05-03T17:32:06.325Z,4.22
2023-05-03T17:34:32.993Z,4.30
2023-05-03T17:36:59.646Z,4.32
2023-05-03T17:39:28.275Z,4.78
2023-05-03T17:41:54.994Z,3.55
2023-05-03T17:44:22.855Z,4.00
2023-05-03T17:46:50.023Z,4.25
2023-05-03T17:49:16.836Z,4.63
2023-05-03T17:51:43.520Z,4.55
2023-05-03T17:54:10.355Z,4.80
2023-05-03T17:56:37.060Z,4.72
2023-05-03T17:59:03.743Z,4.40
2023-05-03T18:01:30.551Z,4.75
2023-05-03T18:03:57.312Z,4.35
2023-05-03T18:06:24.646Z,3.72
2023-05-03T18:08:51.692Z,4.95
2023-05-03T18:11:18.388Z,4.97
2023-05-03T18:13:45.381Z,3.88
2023-05-03T18:16:12.247Z,4.05
2023-05-03T18:18:39.127Z,3.85
2023-05-03T18:21:06.309Z,4.45
2023-05-03T18:23:33.766Z,4.65
2023-05-03T18:26:00.519Z,4.70
2023-05-03T18:28:27.594Z,4.53
2023-05-03T18:30:55.895Z,4.90
2023-05-03T18:33:22.882Z,6.00
2023-05-03T18:35:50.885Z,5.07
2023-05-03T18:38:19.062Z,4.55
2023-05-03T18:40:46.883Z,4.50
2023-05-03T18:43:14.011Z,4.50
2023-05-03T18:45:40.950Z,4.45
2023-05-03T18:48:08.186Z,4.07
2023-05-03T18:50:39.107Z,4.25
2023-05-03T18:53:06.561Z,4.72
2023-05-03T18:55:33.314Z,4.85
2023-05-03T18:58:00.558Z,4.85
2023-05-03T19:00:27.770Z,4.50
2023-05-03T19:02:54.493Z,4.57
2023-05-03T19:05:21.395Z,4.72
2023-05-03T19:07:48.702Z,4.43
2023-05-03T19:10:16.590Z,5.07
2023-05-03T19:12:44.397Z,5.40
2023-05-03T19:15:11.754Z,5.68
2023-05-03T19:17:41.606Z,4.88
2023-05-03T19:20:10.033Z,5.32
2023-05-03T19:22:36.791Z,5.20
2023-05-03T19:25:05.126Z,5.18
2023-05-03T19:27:32.089Z,5.05
2023-05-03T19:29:58.958Z,5.00
2023-05-03T19:32:25.826Z,5.85
2023-05-03T19:34:52.515Z,5.88
2023-05-03T19:37:19.654Z,5.13
2023-05-03T19:39:46.438Z,5.40
2023-05-03T19:42:13.143Z,5.55
2023-05-03T19:44:39.888Z,5.40
2023-05-03T19:47:06.596Z,5.32
2023-05-03T19:49:33.313Z,5.18
2023-05-03T19:52:01.894Z,4.95
2023-05-03T19:54:29.680Z,5.50
2023-05-03T19:56:56.396Z,5.53
2023-05-03T19:59:23.081Z,5.72
2023-05-03T20:01:49.894Z,4.90
2023-05-03T20:04:16.982Z,5.32
2023-05-03T20:06:43.947Z,5.80
2023-05-03T20:09:10.881Z,4.85
2023-05-03T20:11:37.594Z,4.85
2023-05-03T20:14:04.537Z,4.95
2023-05-03T20:16:37.234Z,5.22
2023-05-03T20:19:07.241Z,6.40
2023-05-03T20:21:33.906Z,5.55
2023-05-03T20:24:00.699Z,6.68
2023-05-03T20:26:27.424Z,6.50
2023-05-03T20:28:54.137Z,6.78
2023-05-03T20:31:21.370Z,6.32
2023-05-03T20:33:48.100Z,5.88
2023-05-03T20:36:14.812Z,7.35
2023-05-03T20:38:41.607Z,6.53
2023-05-03T20:41:08.604Z,6.72
2023-05-03T20:43:35.291Z,6.78
2023-05-03T20:46:02.009Z,7.55
2023-05-03T20:48:28.894Z,6.35
2023-05-03T20:50:58.548Z,6.45
2023-05-03T20:53:25.390Z,7.40
2023-05-03T20:55:59.995Z,7.32
2023-05-03T20:58:26.856Z,6.55
2023-05-03T21:00:56.133Z,6.20
2023-05-03T21:03:25.808Z,5.47
2023-05-03T21:05:53.514Z,6.25
2023-05-03T21:08:20.234Z,6.25
2023-05-03T21:10:46.933Z,6.38
2023-05-03T21:13:13.915Z,5.88
2023-05-03T21:15:40.840Z,5.90
2023-05-03T21:18:07.512Z,5.53
2023-05-03T21:20:34.841Z,5.43
2023-05-03T21:23:01.542Z,4.80
2023-05-03T21:25:28.369Z,5.80
2023-05-03T21:27:55.085Z,5.57
2023-05-03T21:30:21.808Z,5.40
2023-05-03T21:32:49.758Z,5.18
2023-05-03T21:35:17.605Z,5.53
2023-05-03T21:37:46.406Z,5.95
2023-05-03T21:40:15.053Z,5.50
2023-05-03T21:42:44.847Z,5.85
2023-05-03T21:45:12.289Z,5.50
2023-05-03T21:47:39.047Z,5.97
2023-05-03T21:50:06.748Z,5.55
2023-05-03T21:52:34.082Z,5.90
2023-05-03T21:55:01.000Z,4.75
2023-05-03T21:57:27.934Z,5.25
2023-05-03T21:59:55.655Z,5.38
2023-05-03T22:02:23.229Z,5.68
2023-05-03T22:04:50.521Z,5.35
2023-05-03T22:07:17.502Z,5.78
2023-05-03T22:09:47.749Z,5.40
2023-05-03T22:14:45.072Z,5.47
2023-05-03T22:17:11.757Z,4.85
2023-05-03T22:19:38.499Z,4.82
2023-05-03T22:22:05.170Z,4.78
2023-05-03T22:24:31.868Z,4.80
2023-05-03T22:26:59.169Z,5.60
2023-05-03T22:29:26.358Z,4.82
2023-05-03T22:31:53.125Z,5.32
2023-05-03T22:34:19.896Z,5.15
2023-05-03T22:36:46.566Z,5.00
2023-05-03T22:39:13.232Z,5.22
2023-05-03T22:41:40.381Z,5.20
2023-05-03T22:44:07.035Z,4.97
2023-05-03T22:46:33.988Z,5.13
2023-05-03T22:49:00.688Z,5.25
2023-05-03T22:51:27.535Z,4.68
2023-05-03T22:53:54.236Z,4.72
2023-05-03T22:56:21.606Z,4.70
2023-05-03T22:58:48.307Z,5.18
2023-05-03T23:01:15.527Z,5.40
2023-05-03T23:03:42.675Z,5.28
2023-05-03T23:06:09.763Z,5.03
2023-05-03T23:08:36.526Z,4.60
2023-05-03T23:11:03.313Z,4.70
2023-05-03T23:13:30.006Z,5.00
2023-05-03T23:15:57.006Z,4.88
2023-05-03T23:18:23.868Z,4.85
2023-05-03T23:20:50.575Z,5.05
2023-05-03T23:23:17.307Z,5.00
2023-05-03T23:25:43.968Z,5.20
2023-05-03T23:28:11.137Z,4.93
2023-05-03T23:30:43.383Z,4.43
2023-05-03T23:33:11.062Z,5.00
2023-05-03T23:35:38.393Z,4.30
2023-05-03T23:38:05.104Z,4.57
2023-05-03T23:40:31.966Z,4.18
2023-05-03T23:42:58.651Z,4.72
2023-05-03T23:45:26.857Z,4.85
2023-05-03T23:47:53.827Z,4.78
2023-05-03T23:50:20.917Z,4.80
2023-05-03T23:52:47.834Z,4.93
2023-05-03T23:55:14.560Z,4.47
2023-05-03T23:57:41.435Z,4.57
